Pacifica, CA (94044)

5:12 PM PDT on September 02, 2015 (GMT -0700)
Sharp Park | | Change Station
CLOSE
Current Station
Personal Weather Station
Location: Pacifica, CA
Elevation: 189 ft
Nearby Weather Stations

Elev 189 ft 37.64 °N, 122.49 °W | Updated 8 seconds ago

Mostly Cloudy
Mostly Cloudy
68.2 °F
Feels Like 68.2 °F
N
0.0
Wind Variable Wind from SW
Gusts 6.0 mph

Today
High -- | Low -- °F
--% Chance of Precip.
Yesterday
High -- | Low -- °F
Precip. -- in
6:40 AM 7:37 PM
Waning Gibbous, 76% visible
Pressure 29.93 in
Visibility 10.0 miles
Clouds Few 1000 ft
Scattered Clouds 1500 ft
Mostly Cloudy 2100 ft
Dew Point 63 °F
Humidity 84%
Rainfall 0.00 in
Snow Depth Not available.
UV 2 out of 12
Pollen 7.10 out of 12
Air Quality Not available.
Flu Activity Not available.
METAR KSFO 022356Z 26017KT 10SM FEW010 SCT015 BKN021 20/14 A2993 RMK AO2 SLP134 T02000144 10228 20194 56008
Pressure 29.93 in
Visibility 10.0 miles
Clouds Few 1000 ft
Scattered Clouds 1500 ft
Mostly Cloudy 2100 ft
Dew Point 63 °F
Humidity 84%
Rainfall 0.00 in
Snow Depth Not available.
UV 2 out of 12
Pollen 7.10 out of 12
Air Quality Not available.
Flu Activity Not available.
METAR KSFO 022356Z 26017KT 10SM FEW010 SCT015 BKN021 20/14 A2993 RMK AO2 SLP134 T02000144 10228 20194 56008

10-Day Weather Forecast

×

Almanac

Astronomy

Sep. 02, 2015 Rise Set
Actual Time
Civil Twilight
Nautical Twilight
Astronomical Twilight
Moon
Length of Visible Light
Length of Day
Tomorrow will be .
, % of the Moon is Illuminated

Today's Extremes

State Highs State Lows

Community

WunderPhotos

Upload Photos

1,851,846 photos uploaded!

WunderBlogs® & News

Nearby

Air Quality

  Air Quality AQ Index Pollutant
Not available.

Snow Depth

Station Depth Elevation

Earthquake Activity

City Distance Mag. Time & Date
Minimum magnitude displayed is 2.5.

Coastal Water Temperatures

Place Temperature

Stations

Nearby Weather Stations

Station Location Temp. Windchill Dew Point Humidity Wind Precip. Elev Updated Type